Terminal Aerodrome Forecast
Issued by NWS Atlanta, GA

Home | Current Version | Previous Version | Text Only | Print | Product List | Glossary On
Versions: 1 2 3 4 5 6 7 8 9 10 11 12 13 14 15 16 17 18 19 20 21 22
603
FTUS42 KFFC 070836 AAA
TAFCSG
TAF AMD
KCSG 070836Z 0709/0806 33006KT P6SM OVC015
      TEMPO 0710/0714 SCT015
     FM071400 33004KT P6SM BKN025
     FM071700 30007KT P6SM SCT040
     FM080000 31004KT P6SM SCT050=

USA.gov is the U.S. government's official web portal to all federal, state and local government web resources and services.